createdAt,value
2018-03-16T00:00:30.939Z,2.29
2018-03-16T00:01:30.809Z,2.44
2018-03-16T00:02:30.721Z,2.37
2018-03-16T00:03:30.616Z,2.32
2018-03-16T00:04:30.516Z,2.32
2018-03-16T00:05:30.454Z,2.36
2018-03-16T00:06:30.305Z,2.29
2018-03-16T00:07:30.263Z,2.22
2018-03-16T00:08:30.143Z,2.15
2018-03-16T00:09:30.048Z,2.19
2018-03-16T00:10:29.984Z,2.08
2018-03-16T00:11:29.842Z,2.05
2018-03-16T00:12:29.760Z,2.15
2018-03-16T00:13:29.632Z,2.18
2018-03-16T00:14:29.531Z,2.07
2018-03-16T00:15:29.465Z,2.22
2018-03-16T00:16:29.406Z,2.19
2018-03-16T00:17:29.282Z,2.30
2018-03-16T00:18:29.176Z,2.27
2018-03-16T00:19:29.080Z,2.15
2018-03-16T00:20:28.974Z,2.30
2018-03-16T00:21:28.876Z,2.43
2018-03-16T00:22:28.801Z,2.65
2018-03-16T00:23:28.701Z,2.63
2018-03-16T00:24:28.589Z,2.51
2018-03-16T00:25:28.532Z,2.47
2018-03-16T00:26:28.406Z,2.36
2018-03-16T00:27:28.898Z,2.37
2018-03-16T00:28:28.230Z,2.32
2018-03-16T00:29:28.114Z,2.25
2018-03-16T00:30:28.017Z,2.23
2018-03-16T00:31:27.925Z,2.25
2018-03-16T00:32:27.820Z,2.18
2018-03-16T00:33:27.758Z,2.15
2018-03-16T00:34:27.627Z,2.07
2018-03-16T00:35:27.535Z,2.12
2018-03-16T00:36:27.438Z,2.05
2018-03-16T00:37:27.352Z,2.04
2018-03-16T00:38:27.223Z,1.83
2018-03-16T00:39:27.178Z,1.86
2018-03-16T00:40:27.025Z,1.85
2018-03-16T00:41:26.960Z,1.74
2018-03-16T00:42:26.844Z,1.81
2018-03-16T00:43:26.772Z,1.64
2018-03-16T00:44:26.757Z,1.64
2018-03-16T00:45:26.649Z,1.67
2018-03-16T00:46:26.483Z,1.74
2018-03-16T00:47:26.390Z,1.85
2018-03-16T00:48:26.315Z,1.79
2018-03-16T00:49:26.200Z,1.90
2018-03-16T00:50:26.111Z,1.95
2018-03-16T00:51:26.024Z,2.08
2018-03-16T00:52:26.401Z,2.01
2018-03-16T00:53:25.807Z,2.18
2018-03-16T00:54:25.697Z,2.08
2018-03-16T00:55:25.606Z,2.14
2018-03-16T00:56:25.560Z,2.25
2018-03-16T00:57:25.413Z,2.26
2018-03-16T00:58:25.328Z,2.45
2018-03-16T00:59:25.195Z,2.36
2018-03-16T01:00:25.137Z,2.45
2018-03-16T01:01:25.038Z,2.37
2018-03-16T01:02:25.273Z,2.41
2018-03-16T01:03:24.829Z,2.45
2018-03-16T01:04:24.724Z,2.44
2018-03-16T01:05:24.641Z,2.56
2018-03-16T01:06:24.542Z,2.50
2018-03-16T01:07:24.437Z,2.53
2018-03-16T01:08:24.411Z,2.55
2018-03-16T01:09:24.252Z,2.58
2018-03-16T01:10:24.165Z,2.58
2018-03-16T01:11:24.041Z,2.58
2018-03-16T01:12:23.969Z,2.51
2018-03-16T01:13:23.875Z,2.47
2018-03-16T01:14:23.800Z,2.48
2018-03-16T01:15:23.680Z,2.58
2018-03-16T01:16:23.591Z,2.55
2018-03-16T01:17:23.491Z,2.51
2018-03-16T01:18:23.395Z,2.51
2018-03-16T01:19:23.297Z,2.59
2018-03-16T01:20:23.905Z,2.56
2018-03-16T01:21:23.107Z,2.63
2018-03-16T01:22:23.014Z,2.65
2018-03-16T01:23:22.912Z,2.76
2018-03-16T01:24:22.824Z,2.76
2018-03-16T01:25:22.712Z,2.73
2018-03-16T01:26:22.666Z,2.83
2018-03-16T01:27:22.517Z,2.71
2018-03-16T01:28:22.431Z,2.84
2018-03-16T01:29:22.318Z,2.89
2018-03-16T01:30:22.238Z,2.86
2018-03-16T01:31:22.141Z,2.90
2018-03-16T01:32:22.056Z,2.84
2018-03-16T01:33:21.961Z,2.84
2018-03-16T01:34:21.852Z,2.84
2018-03-16T01:35:21.752Z,2.90
2018-03-16T01:36:21.657Z,2.90
2018-03-16T01:37:21.573Z,3.01
2018-03-16T01:38:21.519Z,2.94
2018-03-16T01:39:21.395Z,2.87
2018-03-16T01:40:21.299Z,2.92
2018-03-16T01:41:21.187Z,2.95
2018-03-16T01:42:21.093Z,3.01
2018-03-16T01:43:21.011Z,2.90
2018-03-16T01:44:20.933Z,2.95
2018-03-16T01:45:20.789Z,2.90
2018-03-16T01:46:20.709Z,2.89
2018-03-16T01:47:20.618Z,2.92
2018-03-16T01:48:20.511Z,3.04
2018-03-16T01:49:20.429Z,2.97
2018-03-16T01:50:20.343Z,2.99
2018-03-16T01:51:20.239Z,3.02
2018-03-16T01:52:20.129Z,3.04
2018-03-16T01:53:20.021Z,2.92
2018-03-16T01:54:19.929Z,2.90
2018-03-16T01:55:19.844Z,2.92
2018-03-16T01:56:19.817Z,2.92
2018-03-16T01:57:19.612Z,2.89
2018-03-16T01:58:19.547Z,3.02
2018-03-16T01:59:19.468Z,2.95
2018-03-16T02:00:19.378Z,3.01
2018-03-16T02:01:19.260Z,3.01
2018-03-16T02:02:19.209Z,2.95
2018-03-16T02:03:19.091Z,2.99
2018-03-16T02:04:18.976Z,3.01
2018-03-16T02:05:18.887Z,3.08
2018-03-16T02:06:18.813Z,3.05
2018-03-16T02:07:18.707Z,3.02
2018-03-16T02:08:18.661Z,3.05
2018-03-16T02:09:18.508Z,3.04
2018-03-16T02:10:18.395Z,2.97
2018-03-16T02:11:18.918Z,3.05
2018-03-16T02:12:18.229Z,3.01
2018-03-16T02:13:18.126Z,2.95
2018-03-16T02:14:18.067Z,2.98
2018-03-16T02:15:17.934Z,3.02
2018-03-16T02:16:17.851Z,2.89
2018-03-16T02:17:17.745Z,2.95
2018-03-16T02:18:17.673Z,3.04
2018-03-16T02:19:17.564Z,2.90
2018-03-16T02:20:17.497Z,2.97
2018-03-16T02:21:17.378Z,2.94
2018-03-16T02:22:17.277Z,3.01
2018-03-16T02:23:17.166Z,2.99
2018-03-16T02:24:17.079Z,3.01
2018-03-16T02:25:16.987Z,2.98
2018-03-16T02:26:16.916Z,2.94
2018-03-16T02:27:16.837Z,2.92
2018-03-16T02:28:16.637Z,2.95
2018-03-16T02:29:16.613Z,2.94
2018-03-16T02:30:16.505Z,2.89
2018-03-16T02:31:16.414Z,2.89
2018-03-16T02:32:16.410Z,2.89
2018-03-16T02:33:16.228Z,2.99
2018-03-16T02:34:16.083Z,2.92
2018-03-16T02:35:16.023Z,2.90
2018-03-16T02:36:16.414Z,2.89
2018-03-16T02:37:15.857Z,2.83
2018-03-16T02:38:15.793Z,2.90
2018-03-16T02:39:15.643Z,2.90
2018-03-16T02:40:15.539Z,2.83
2018-03-16T02:41:15.496Z,2.90
2018-03-16T02:42:15.352Z,2.81
2018-03-16T02:43:15.268Z,2.89
2018-03-16T02:44:15.161Z,2.84
2018-03-16T02:45:15.056Z,2.80
2018-03-16T02:46:14.983Z,2.74
2018-03-16T02:47:14.858Z,2.86
2018-03-16T02:48:14.787Z,2.77
2018-03-16T02:49:14.681Z,2.76
2018-03-16T02:50:14.654Z,2.84
2018-03-16T02:51:14.500Z,2.87
2018-03-16T02:52:14.415Z,2.80
2018-03-16T02:53:14.301Z,2.77
2018-03-16T02:54:14.203Z,2.76
2018-03-16T02:55:14.137Z,2.80
2018-03-16T02:56:14.055Z,2.73
2018-03-16T02:57:13.928Z,2.81
2018-03-16T02:58:13.917Z,2.76
2018-03-16T02:59:13.771Z,2.80
2018-03-16T03:00:13.645Z,2.76
2018-03-16T03:01:13.543Z,2.80
2018-03-16T03:02:13.487Z,2.65
2018-03-16T03:03:13.353Z,2.76
2018-03-16T03:04:13.262Z,2.74
2018-03-16T03:05:13.161Z,2.76
2018-03-16T03:06:13.068Z,2.73
2018-03-16T03:07:12.980Z,2.74
2018-03-16T03:08:12.954Z,2.66
2018-03-16T03:09:12.831Z,2.69
2018-03-16T03:10:12.685Z,2.65
2018-03-16T03:11:12.590Z,2.63
2018-03-16T03:12:12.496Z,2.66
2018-03-16T03:13:12.395Z,2.77
2018-03-16T03:14:12.355Z,2.81
2018-03-16T03:15:12.223Z,2.77
2018-03-16T03:16:12.112Z,2.81
2018-03-16T03:17:12.010Z,2.80
2018-03-16T03:18:11.923Z,2.79
2018-03-16T03:19:11.840Z,2.74
2018-03-16T03:20:11.885Z,2.79
2018-03-16T03:21:11.835Z,2.79
2018-03-16T03:22:11.786Z,2.76
2018-03-16T03:23:11.724Z,2.80
2018-03-16T03:24:11.669Z,2.80
2018-03-16T03:25:11.618Z,2.77
2018-03-16T03:26:11.571Z,2.81
2018-03-16T03:27:11.050Z,2.79
2018-03-16T03:28:10.930Z,2.76
2018-03-16T03:29:10.846Z,2.68
2018-03-16T03:30:10.760Z,2.79
2018-03-16T03:31:10.668Z,2.81
2018-03-16T03:32:10.612Z,2.80
2018-03-16T03:33:10.465Z,2.87
2018-03-16T03:34:10.404Z,2.86
2018-03-16T03:35:10.288Z,2.77
2018-03-16T03:36:10.186Z,2.84
2018-03-16T03:37:10.095Z,2.77
2018-03-16T03:38:10.018Z,2.73
2018-03-16T03:39:09.885Z,2.80
2018-03-16T03:40:09.810Z,2.81
2018-03-16T03:41:09.708Z,2.83
2018-03-16T03:42:09.619Z,2.74
2018-03-16T03:43:09.534Z,2.80
2018-03-16T03:44:09.528Z,2.83
2018-03-16T03:45:09.324Z,2.79
2018-03-16T03:46:09.258Z,2.87
2018-03-16T03:47:09.167Z,2.81
2018-03-16T03:48:09.066Z,2.73
2018-03-16T03:49:08.963Z,2.73
2018-03-16T03:50:08.899Z,2.92
2018-03-16T03:51:08.775Z,2.79
2018-03-16T03:52:08.640Z,2.84
2018-03-16T03:53:08.562Z,2.79
2018-03-16T03:54:08.475Z,2.76
2018-03-16T03:55:08.393Z,2.80
2018-03-16T03:56:08.305Z,2.76
2018-03-16T03:57:08.163Z,2.81
2018-03-16T03:58:08.059Z,2.71
2018-03-16T03:59:07.973Z,2.79
2018-03-16T04:00:07.852Z,2.77
2018-03-16T04:01:07.769Z,2.74
2018-03-16T04:02:07.730Z,2.81
2018-03-16T04:03:07.573Z,2.80
2018-03-16T04:04:07.477Z,2.83
2018-03-16T04:05:07.398Z,2.74
2018-03-16T04:06:07.302Z,2.80
2018-03-16T04:07:07.210Z,2.86
2018-03-16T04:08:07.226Z,2.77
2018-03-16T04:09:08.926Z,2.73
2018-03-16T04:10:06.917Z,2.79
2018-03-16T04:11:06.828Z,2.74
2018-03-16T04:12:06.726Z,2.80
2018-03-16T04:13:07.424Z,2.74
2018-03-16T04:14:06.539Z,2.73
2018-03-16T04:15:06.434Z,2.79
2018-03-16T04:16:06.373Z,2.81
2018-03-16T04:17:06.244Z,2.65
2018-03-16T04:18:06.154Z,2.76
2018-03-16T04:19:06.066Z,2.66
2018-03-16T04:20:05.987Z,2.69
2018-03-16T04:21:05.848Z,2.69
2018-03-16T04:22:05.766Z,2.79
2018-03-16T04:23:05.672Z,2.76
2018-03-16T04:24:05.571Z,2.76
2018-03-16T04:25:05.501Z,2.77
2018-03-16T04:26:05.441Z,2.77
2018-03-16T04:27:05.271Z,2.83
2018-03-16T04:28:05.187Z,2.61
2018-03-16T04:29:05.102Z,2.81
2018-03-16T04:30:05.004Z,2.74
2018-03-16T04:31:04.903Z,2.63
2018-03-16T04:32:04.841Z,2.74
2018-03-16T04:33:04.728Z,2.65
2018-03-16T04:34:04.608Z,2.79
2018-03-16T04:35:04.530Z,2.79
2018-03-16T04:36:04.439Z,2.73
2018-03-16T04:37:04.322Z,2.69
2018-03-16T04:38:04.266Z,2.77
2018-03-16T04:39:04.149Z,2.80
2018-03-16T04:40:04.053Z,2.76
2018-03-16T04:41:03.959Z,2.66
2018-03-16T04:42:03.865Z,2.62
2018-03-16T04:43:03.768Z,2.65
2018-03-16T04:44:03.694Z,2.73
2018-03-16T04:45:03.597Z,2.80
2018-03-16T04:46:03.482Z,2.65
2018-03-16T04:47:03.380Z,2.79
2018-03-16T04:48:03.287Z,2.80
2018-03-16T04:49:03.184Z,2.77
2018-03-16T04:50:03.142Z,2.79
2018-03-16T04:51:02.988Z,2.80
2018-03-16T04:52:02.882Z,2.77
2018-03-16T04:53:02.803Z,2.79
2018-03-16T04:54:02.731Z,2.86
2018-03-16T04:55:02.632Z,2.86
2018-03-16T04:56:02.531Z,2.84
2018-03-16T04:57:02.426Z,2.89
2018-03-16T04:58:02.361Z,2.90
2018-03-16T04:59:02.213Z,2.77
2018-03-16T05:00:02.116Z,2.89
2018-03-16T05:01:02.008Z,2.87
2018-03-16T05:02:01.978Z,2.90
2018-03-16T05:03:01.846Z,2.84
2018-03-16T05:04:01.720Z,2.86
2018-03-16T05:05:01.663Z,2.90
2018-03-16T05:06:01.546Z,2.87
2018-03-16T05:07:01.483Z,2.87
2018-03-16T05:08:01.430Z,2.87
2018-03-16T05:09:01.289Z,2.86
2018-03-16T05:10:01.179Z,2.87
2018-03-16T05:11:01.101Z,2.90
2018-03-16T05:12:01.014Z,2.94
2018-03-16T05:13:00.900Z,2.92
2018-03-16T05:14:00.865Z,2.97
2018-03-16T05:15:00.703Z,2.97
2018-03-16T05:16:00.617Z,2.90
2018-03-16T05:17:00.528Z,2.97
2018-03-16T05:18:00.406Z,2.92
2018-03-16T05:19:00.302Z,2.99
2018-03-16T05:20:00.250Z,2.97
2018-03-16T05:21:00.184Z,2.98
2018-03-16T05:22:00.031Z,2.98
2018-03-16T05:22:59.944Z,2.98
2018-03-16T05:23:59.835Z,2.97
2018-03-16T05:24:59.746Z,3.04
2018-03-16T05:25:59.680Z,2.97
2018-03-16T05:26:59.561Z,2.95
2018-03-16T05:27:59.490Z,2.95
2018-03-16T05:28:59.362Z,2.97
2018-03-16T05:29:59.277Z,2.94
2018-03-16T05:30:59.182Z,2.92
2018-03-16T05:31:59.111Z,2.99
2018-03-16T05:32:58.983Z,2.98
2018-03-16T05:33:58.888Z,2.98
2018-03-16T05:34:58.782Z,2.94
2018-03-16T05:35:58.692Z,2.95
2018-03-16T05:36:58.587Z,3.02
2018-03-16T05:37:58.540Z,3.07
2018-03-16T05:38:58.415Z,2.99
2018-03-16T05:39:58.294Z,3.08
2018-03-16T05:40:58.206Z,3.05
2018-03-16T05:41:58.104Z,3.05
2018-03-16T05:42:58.001Z,3.12
2018-03-16T05:43:58.015Z,3.01
2018-03-16T05:44:57.837Z,3.04
2018-03-16T05:45:57.717Z,3.02
2018-03-16T05:46:57.652Z,3.01
2018-03-16T05:47:57.541Z,3.04
2018-03-16T05:48:57.433Z,3.04
2018-03-16T05:49:57.385Z,3.02
2018-03-16T05:50:57.260Z,3.04
2018-03-16T05:51:57.145Z,2.99
2018-03-16T05:52:57.091Z,3.01
2018-03-16T05:53:56.977Z,2.99
2018-03-16T05:54:56.916Z,2.97
2018-03-16T05:55:56.808Z,2.92
2018-03-16T05:56:56.692Z,2.95
2018-03-16T05:57:56.597Z,3.02
2018-03-16T05:58:56.941Z,3.01
2018-03-16T05:59:56.403Z,2.94
2018-03-16T06:00:56.348Z,2.97
2018-03-16T06:01:56.278Z,2.94
2018-03-16T06:02:56.109Z,2.97
2018-03-16T06:03:56.006Z,2.86
2018-03-16T06:04:55.896Z,2.95
2018-03-16T06:05:55.824Z,2.95
2018-03-16T06:06:55.719Z,2.99
2018-03-16T06:07:55.636Z,2.90
2018-03-16T06:08:55.540Z,2.90
2018-03-16T06:09:55.442Z,2.98
2018-03-16T06:10:55.330Z,2.95
2018-03-16T06:11:55.225Z,2.99
2018-03-16T06:12:55.146Z,2.94
2018-03-16T06:13:55.089Z,3.02
2018-03-16T06:14:54.952Z,3.05
2018-03-16T06:15:54.862Z,3.05
2018-03-16T06:16:54.785Z,3.07
2018-03-16T06:17:54.665Z,3.08
2018-03-16T06:18:54.572Z,3.08
2018-03-16T06:19:54.537Z,3.01
2018-03-16T06:20:54.378Z,3.08
2018-03-16T06:21:54.287Z,3.10
2018-03-16T06:22:54.189Z,3.07
2018-03-16T06:23:54.118Z,3.16
2018-03-16T06:24:54.007Z,3.16
2018-03-16T06:25:53.946Z,3.15
2018-03-16T06:26:53.870Z,3.23
2018-03-16T06:27:53.714Z,3.23
2018-03-16T06:28:53.616Z,3.19
2018-03-16T06:29:53.532Z,3.19
2018-03-16T06:30:53.419Z,3.20
2018-03-16T06:31:53.411Z,3.15
2018-03-16T06:32:53.260Z,3.19
2018-03-16T06:33:53.159Z,3.19
2018-03-16T06:34:53.077Z,3.23
2018-03-16T06:35:52.988Z,3.23
2018-03-16T06:36:52.867Z,3.30
2018-03-16T06:37:52.823Z,3.22
2018-03-16T06:38:52.665Z,3.23
2018-03-16T06:39:52.578Z,3.20
2018-03-16T06:40:52.502Z,3.17
2018-03-16T06:41:52.384Z,3.22
2018-03-16T06:42:52.290Z,3.26
2018-03-16T06:43:52.248Z,3.26
2018-03-16T06:44:52.226Z,3.33
2018-03-16T06:45:52.006Z,3.33
2018-03-16T06:46:51.904Z,3.37
2018-03-16T06:47:51.763Z,3.35
2018-03-16T06:48:51.709Z,3.30
2018-03-16T06:49:51.649Z,3.34
2018-03-16T06:50:51.531Z,3.34
2018-03-16T06:51:51.479Z,3.42
2018-03-16T06:52:51.332Z,3.46
2018-03-16T06:53:51.244Z,3.35
2018-03-16T06:54:51.155Z,3.50
2018-03-16T06:55:51.106Z,3.37
2018-03-16T06:56:50.964Z,3.37
2018-03-16T06:57:50.841Z,3.49
2018-03-16T06:58:50.767Z,3.39
2018-03-16T06:59:50.697Z,3.46
2018-03-16T07:00:50.593Z,3.54
2018-03-16T07:01:50.532Z,3.52
2018-03-16T07:02:50.392Z,3.54
2018-03-16T07:03:50.284Z,3.56
2018-03-16T07:04:50.206Z,3.67
2018-03-16T07:05:50.119Z,3.53
2018-03-16T07:06:50.019Z,3.49
2018-03-16T07:07:49.966Z,3.59
2018-03-16T07:08:49.799Z,3.64
2018-03-16T07:09:49.723Z,3.56
2018-03-16T07:10:49.630Z,3.59
2018-03-16T07:11:49.533Z,3.62
2018-03-16T07:12:49.393Z,3.60
2018-03-16T07:13:49.354Z,3.71
2018-03-16T07:14:49.254Z,3.71
2018-03-16T07:15:49.183Z,3.81
2018-03-16T07:16:49.060Z,3.71
2018-03-16T07:17:48.964Z,3.90
2018-03-16T07:18:48.877Z,3.77
2018-03-16T07:19:48.824Z,3.84
2018-03-16T07:20:48.670Z,3.81
2018-03-16T07:21:48.574Z,3.86
2018-03-16T07:22:48.496Z,3.93
2018-03-16T07:23:48.384Z,3.93
2018-03-16T07:24:48.283Z,3.99
2018-03-16T07:25:48.244Z,3.90
2018-03-16T07:26:48.067Z,3.96
2018-03-16T07:27:47.990Z,3.93
2018-03-16T07:28:47.907Z,4.04
2018-03-16T07:29:47.851Z,4.06
2018-03-16T07:30:47.689Z,4.16
2018-03-16T07:31:47.667Z,4.13
2018-03-16T07:32:47.526Z,4.28
2018-03-16T07:33:47.466Z,4.25
2018-03-16T07:34:47.338Z,4.26
2018-03-16T07:35:47.242Z,4.31
2018-03-16T07:36:47.168Z,4.42
2018-03-16T07:37:47.108Z,4.47
2018-03-16T07:38:46.969Z,4.47
2018-03-16T07:39:46.874Z,4.57
2018-03-16T07:40:46.790Z,4.54
2018-03-16T07:41:46.668Z,4.54
2018-03-16T07:42:46.604Z,4.50
2018-03-16T07:43:46.576Z,4.50
2018-03-16T07:44:46.405Z,4.50
2018-03-16T07:45:46.307Z,4.38
2018-03-16T07:46:46.226Z,4.38
2018-03-16T07:47:46.115Z,4.38
2018-03-16T07:48:46.029Z,4.38
2018-03-16T07:49:45.995Z,4.43
2018-03-16T07:50:45.817Z,4.36
2018-03-16T07:51:45.714Z,4.50
2018-03-16T07:52:45.646Z,4.54
2018-03-16T07:53:45.532Z,4.61
2018-03-16T07:54:45.447Z,4.61
2018-03-16T07:55:45.459Z,4.67
2018-03-16T07:56:45.244Z,4.72
2018-03-16T07:57:45.148Z,4.67
2018-03-16T07:58:45.086Z,4.72
2018-03-16T07:59:44.977Z,4.64
2018-03-16T08:00:44.872Z,4.69
2018-03-16T08:01:44.824Z,4.84
2018-03-16T08:02:44.704Z,4.80
2018-03-16T08:03:44.611Z,4.86
2018-03-16T08:04:44.534Z,4.88
2018-03-16T08:05:44.426Z,4.84
2018-03-16T08:06:44.330Z,4.87
2018-03-16T08:07:44.308Z,4.84
2018-03-16T08:08:44.161Z,4.84
2018-03-16T08:09:44.066Z,4.74
2018-03-16T08:10:43.963Z,4.69
2018-03-16T08:11:43.846Z,4.71
2018-03-16T08:12:43.778Z,4.69
2018-03-16T08:13:43.724Z,4.72
2018-03-16T08:14:43.591Z,4.71
2018-03-16T08:15:43.486Z,4.71
2018-03-16T08:16:43.392Z,4.80
2018-03-16T08:17:43.283Z,4.74
2018-03-16T08:18:43.197Z,4.72
2018-03-16T08:19:43.153Z,4.71
2018-03-16T08:20:43.018Z,4.71
2018-03-16T08:21:42.887Z,4.80
2018-03-16T08:22:42.816Z,4.77
2018-03-16T08:23:42.734Z,4.71
2018-03-16T08:24:42.625Z,4.87
2018-03-16T08:25:42.626Z,4.80
2018-03-16T08:26:42.445Z,4.84
2018-03-16T08:27:42.354Z,4.80
2018-03-16T08:28:42.261Z,4.90
2018-03-16T08:29:42.144Z,4.91
2018-03-16T08:30:42.136Z,4.87
2018-03-16T08:31:42.016Z,4.93
2018-03-16T08:32:41.895Z,4.91
2018-03-16T08:33:41.779Z,4.99
2018-03-16T08:34:41.705Z,4.97
2018-03-16T08:35:41.591Z,4.97
2018-03-16T08:36:41.532Z,5.01
2018-03-16T08:37:41.445Z,4.96
2018-03-16T08:38:41.340Z,5.01
2018-03-16T08:39:41.243Z,4.96
2018-03-16T08:40:41.153Z,4.94
2018-03-16T08:41:41.058Z,4.91
2018-03-16T08:42:40.954Z,4.86
2018-03-16T08:43:40.965Z,4.91
2018-03-16T08:44:40.765Z,4.94
2018-03-16T08:45:40.695Z,4.88
2018-03-16T08:46:40.580Z,4.91
2018-03-16T08:47:40.493Z,4.87
2018-03-16T08:48:40.390Z,4.90
2018-03-16T08:49:40.307Z,4.94
2018-03-16T08:50:40.200Z,4.90
2018-03-16T08:51:40.078Z,4.93
2018-03-16T08:52:40.013Z,4.94
2018-03-16T08:53:39.921Z,4.87
2018-03-16T08:54:39.823Z,4.93
2018-03-16T08:55:39.755Z,4.93
2018-03-16T08:56:39.620Z,4.97
2018-03-16T08:57:39.620Z,4.97
2018-03-16T08:58:39.452Z,4.97
2018-03-16T08:59:39.330Z,4.97
2018-03-16T09:00:39.273Z,5.01
2018-03-16T09:01:39.255Z,5.01
2018-03-16T09:02:39.069Z,5.01
2018-03-16T09:03:39.007Z,4.94
2018-03-16T09:04:38.879Z,4.91
2018-03-16T09:05:38.804Z,4.97
2018-03-16T09:06:38.716Z,4.94
2018-03-16T09:07:38.670Z,4.90
2018-03-16T09:08:38.516Z,4.96
2018-03-16T09:09:38.440Z,5.02
2018-03-16T09:10:38.341Z,5.02
2018-03-16T09:11:38.243Z,5.14
2018-03-16T09:12:38.207Z,5.29
2018-03-16T09:13:38.036Z,5.20
2018-03-16T09:14:37.968Z,5.29
2018-03-16T09:15:37.860Z,5.48
2018-03-16T09:16:37.770Z,5.60
2018-03-16T09:17:37.679Z,5.56
2018-03-16T09:18:37.588Z,5.60
2018-03-16T09:19:37.549Z,5.58
2018-03-16T09:20:37.370Z,5.56
2018-03-16T09:21:37.298Z,5.63
2018-03-16T09:22:37.190Z,5.70
2018-03-16T09:23:37.119Z,5.62
2018-03-16T09:24:37.044Z,5.59
2018-03-16T09:25:36.954Z,5.58
2018-03-16T09:26:36.831Z,5.62
2018-03-16T09:27:36.731Z,5.56
2018-03-16T09:28:36.636Z,5.63
2018-03-16T09:29:36.544Z,5.59
2018-03-16T09:30:36.456Z,5.59
2018-03-16T09:31:36.435Z,5.44
2018-03-16T09:32:36.264Z,5.40
2018-03-16T09:33:36.167Z,5.40
2018-03-16T09:34:36.086Z,5.32
2018-03-16T09:35:35.997Z,5.23
2018-03-16T09:36:35.903Z,5.19
2018-03-16T09:37:35.872Z,5.22
2018-03-16T09:38:35.753Z,5.30
2018-03-16T09:39:35.607Z,5.27
2018-03-16T09:40:35.542Z,5.29
2018-03-16T09:41:35.415Z,5.23
2018-03-16T09:42:35.339Z,5.27
2018-03-16T09:43:35.294Z,5.35
2018-03-16T09:44:35.176Z,5.23
2018-03-16T09:45:35.094Z,5.30
2018-03-16T09:46:34.999Z,5.24
2018-03-16T09:47:34.899Z,5.33
2018-03-16T09:48:34.838Z,5.35
2018-03-16T09:49:34.772Z,5.30
2018-03-16T09:50:34.631Z,5.40
2018-03-16T09:51:34.513Z,5.47
2018-03-16T09:52:34.428Z,5.45
2018-03-16T09:53:34.331Z,5.49
2018-03-16T09:54:34.246Z,5.44
2018-03-16T09:55:34.181Z,5.49
2018-03-16T09:56:34.966Z,5.35
2018-03-16T09:57:33.957Z,5.32
2018-03-16T09:58:33.848Z,5.32
2018-03-16T09:59:33.756Z,5.32
2018-03-16T10:00:33.687Z,5.37
2018-03-16T10:01:33.611Z,5.32
2018-03-16T10:02:33.485Z,5.35
2018-03-16T10:03:33.386Z,5.33
2018-03-16T10:04:33.293Z,5.29
2018-03-16T10:05:33.203Z,5.27
2018-03-16T10:06:33.124Z,5.37
2018-03-16T10:07:33.084Z,5.27
2018-03-16T10:08:32.934Z,5.38
2018-03-16T10:09:32.844Z,5.45
2018-03-16T10:10:32.749Z,5.58
2018-03-16T10:11:32.658Z,5.49
2018-03-16T10:12:32.568Z,5.55
2018-03-16T10:13:32.530Z,5.58
2018-03-16T10:14:32.378Z,5.49
2018-03-16T10:15:32.278Z,5.41
2018-03-16T10:16:32.186Z,5.59
2018-03-16T10:17:32.090Z,5.41
2018-03-16T10:18:31.990Z,5.41
2018-03-16T10:19:31.935Z,5.59
2018-03-16T10:20:31.792Z,5.47
2018-03-16T10:21:31.706Z,5.40
2018-03-16T10:22:31.611Z,5.38
2018-03-16T10:23:31.513Z,5.40
2018-03-16T10:24:31.430Z,5.32
2018-03-16T10:25:31.374Z,5.30
2018-03-16T10:26:31.234Z,5.33
2018-03-16T10:27:31.137Z,5.40
2018-03-16T10:28:31.026Z,5.35
2018-03-16T10:29:30.959Z,5.32
2018-03-16T10:30:30.834Z,5.40
2018-03-16T10:31:30.835Z,5.26
2018-03-16T10:32:30.689Z,5.30
2018-03-16T10:33:30.560Z,5.30
2018-03-16T10:34:30.470Z,5.33
2018-03-16T10:35:30.376Z,5.38
2018-03-16T10:36:30.293Z,5.35
2018-03-16T10:37:30.235Z,5.42
2018-03-16T10:38:30.115Z,5.40
2018-03-16T10:39:30.031Z,5.37
2018-03-16T10:40:29.947Z,5.42
2018-03-16T10:41:29.833Z,5.42
2018-03-16T10:42:29.736Z,5.49
2018-03-16T10:43:29.681Z,5.49
2018-03-16T10:44:29.538Z,5.60
2018-03-16T10:45:29.447Z,5.49
2018-03-16T10:46:29.343Z,5.41
2018-03-16T10:47:29.255Z,5.51
2018-03-16T10:48:29.167Z,5.49
2018-03-16T10:49:29.130Z,5.52
2018-03-16T10:50:28.985Z,5.60
2018-03-16T10:51:28.888Z,5.62
2018-03-16T10:52:28.801Z,5.58
2018-03-16T10:53:28.717Z,5.55
2018-03-16T10:54:28.611Z,5.62
2018-03-16T10:55:28.552Z,5.62
2018-03-16T10:56:28.436Z,5.74
2018-03-16T10:57:28.318Z,5.74
2018-03-16T10:58:28.248Z,5.67
2018-03-16T10:59:28.147Z,5.59
2018-03-16T11:00:28.040Z,5.62
2018-03-16T11:01:28.015Z,5.66
2018-03-16T11:02:27.864Z,5.73
2018-03-16T11:03:27.784Z,5.63
2018-03-16T11:04:27.684Z,5.66
2018-03-16T11:05:27.566Z,5.75
2018-03-16T11:06:29.209Z,5.77
2018-03-16T11:07:27.472Z,5.83
2018-03-16T11:08:27.318Z,5.75
2018-03-16T11:09:27.262Z,5.70
2018-03-16T11:10:27.124Z,5.66
2018-03-16T11:11:27.048Z,5.69
2018-03-16T11:12:26.928Z,5.73
2018-03-16T11:13:26.906Z,5.67
2018-03-16T11:14:26.752Z,5.59
2018-03-16T11:15:26.656Z,5.65
2018-03-16T11:16:26.570Z,5.62
2018-03-16T11:17:26.454Z,5.59
2018-03-16T11:18:26.409Z,5.56
2018-03-16T11:19:26.335Z,5.56
2018-03-16T11:20:26.203Z,5.59
2018-03-16T11:21:26.158Z,5.55
2018-03-16T11:22:26.054Z,5.65
2018-03-16T11:23:26.020Z,5.55
2018-03-16T11:24:25.832Z,5.62
2018-03-16T11:25:25.798Z,5.77
2018-03-16T11:26:25.639Z,5.77
2018-03-16T11:27:25.579Z,5.81
2018-03-16T11:28:25.461Z,5.74
2018-03-16T11:29:25.384Z,5.80
2018-03-16T11:30:25.270Z,5.73
2018-03-16T11:31:25.220Z,5.84
2018-03-16T11:32:25.131Z,5.70
2018-03-16T11:33:24.989Z,5.63
2018-03-16T11:34:24.918Z,5.62
2018-03-16T11:35:24.838Z,5.48
2018-03-16T11:36:24.720Z,5.35
2018-03-16T11:37:24.640Z,5.32
2018-03-16T11:38:24.535Z,5.24
2018-03-16T11:39:24.435Z,5.20
2018-03-16T11:40:24.320Z,5.22
2018-03-16T11:41:24.267Z,5.20
2018-03-16T11:42:24.166Z,5.17
2018-03-16T11:43:24.154Z,5.20
2018-03-16T11:44:23.996Z,5.17
2018-03-16T11:45:23.871Z,5.27
2018-03-16T11:46:23.793Z,5.22
2018-03-16T11:47:23.686Z,5.08
2018-03-16T11:48:23.592Z,5.01
2018-03-16T11:49:23.558Z,4.99
2018-03-16T11:50:23.423Z,4.99
2018-03-16T11:51:23.332Z,4.94
2018-03-16T11:52:23.217Z,4.91
2018-03-16T11:53:23.126Z,4.87
2018-03-16T11:54:23.043Z,4.88
2018-03-16T11:55:23.005Z,4.75
2018-03-16T11:56:22.853Z,4.71
2018-03-16T11:57:22.744Z,4.77
2018-03-16T11:58:22.642Z,4.68
2018-03-16T11:59:22.538Z,4.68
2018-03-16T12:00:22.465Z,4.71
2018-03-16T12:01:22.437Z,4.64
2018-03-16T12:02:22.302Z,4.67
2018-03-16T12:03:22.195Z,4.59
2018-03-16T12:04:22.103Z,4.69
2018-03-16T12:05:22.486Z,4.77
2018-03-16T12:06:21.884Z,4.75
2018-03-16T12:07:21.847Z,4.79
2018-03-16T12:08:22.496Z,4.72
2018-03-16T12:09:21.621Z,4.69
2018-03-16T12:10:21.542Z,4.62
2018-03-16T12:11:21.436Z,4.49
2018-03-16T12:12:21.347Z,4.47
2018-03-16T12:13:21.278Z,4.49
2018-03-16T12:14:21.170Z,4.59
2018-03-16T12:15:21.098Z,4.36
2018-03-16T12:16:20.968Z,4.35
2018-03-16T12:17:20.869Z,4.25
2018-03-16T12:18:20.790Z,4.28
2018-03-16T12:19:20.777Z,4.28
2018-03-16T12:20:20.615Z,4.29
2018-03-16T12:21:20.506Z,4.28
2018-03-16T12:22:20.420Z,4.26
2018-03-16T12:23:20.338Z,4.18
2018-03-16T12:24:20.195Z,4.18
2018-03-16T12:25:20.170Z,4.14
2018-03-16T12:26:20.033Z,4.18
2018-03-16T12:27:19.950Z,4.16
2018-03-16T12:28:19.813Z,4.20
2018-03-16T12:29:19.740Z,4.17
2018-03-16T12:30:19.656Z,4.20
2018-03-16T12:31:19.587Z,4.14
2018-03-16T12:32:19.511Z,4.24
2018-03-16T12:33:19.369Z,4.28
2018-03-16T12:34:19.302Z,4.20
2018-03-16T12:35:19.236Z,4.14
2018-03-16T12:36:19.191Z,4.14
2018-03-16T12:37:19.080Z,4.13
2018-03-16T12:38:18.882Z,4.13
2018-03-16T12:39:18.790Z,4.04
2018-03-16T12:40:18.693Z,3.99
2018-03-16T12:41:19.493Z,4.02
2018-03-16T12:42:18.501Z,3.96
2018-03-16T12:43:18.432Z,3.96
2018-03-16T12:44:18.312Z,3.93
2018-03-16T12:45:18.222Z,3.89
2018-03-16T12:46:18.146Z,3.89
2018-03-16T12:47:18.035Z,3.84
2018-03-16T12:48:17.964Z,3.75
2018-03-16T12:49:17.978Z,3.84
2018-03-16T12:50:17.740Z,3.71
2018-03-16T12:51:17.673Z,3.78
2018-03-16T12:52:17.571Z,3.81
2018-03-16T12:53:17.467Z,3.72
2018-03-16T12:54:17.535Z,3.72
2018-03-16T12:55:17.380Z,3.63
2018-03-16T12:56:17.176Z,3.63
2018-03-16T12:57:17.052Z,3.71
2018-03-16T12:58:16.965Z,3.62
2018-03-16T12:59:16.884Z,3.71
2018-03-16T13:00:16.804Z,3.63
2018-03-16T13:01:16.749Z,3.71
2018-03-16T13:02:16.662Z,3.74
2018-03-16T13:03:16.501Z,3.63
2018-03-16T13:04:16.430Z,3.77
2018-03-16T13:05:16.336Z,3.68
2018-03-16T13:06:16.244Z,3.60
2018-03-16T13:07:16.186Z,3.62
2018-03-16T13:08:16.030Z,3.53
2018-03-16T13:09:15.941Z,3.35
2018-03-16T13:10:15.855Z,3.42
2018-03-16T13:11:15.762Z,3.44
2018-03-16T13:12:15.654Z,3.39
2018-03-16T13:13:15.663Z,3.19
2018-03-16T13:14:15.468Z,3.22
2018-03-16T13:15:15.382Z,3.22
2018-03-16T13:16:15.285Z,3.25
2018-03-16T13:17:15.247Z,3.16